createdAt,value
2022-08-16T00:01:34.213Z,8.93
2022-08-16T00:04:10.560Z,8.18
2022-08-16T00:06:53.174Z,8.52
2022-08-16T00:09:26.718Z,8.73
2022-08-16T00:12:17.814Z,9.40
2022-08-16T00:15:05.531Z,8.32
2022-08-16T00:17:56.003Z,11.07
2022-08-16T00:20:25.040Z,9.85
2022-08-16T00:22:52.191Z,10.07
2022-08-16T00:26:33.364Z,8.45
2022-08-16T00:28:09.207Z,10.63
2022-08-16T00:30:38.323Z,10.60
2022-08-16T00:33:06.167Z,9.70
2022-08-16T00:35:37.513Z,8.18
2022-08-16T00:38:43.312Z,8.80
2022-08-16T00:40:54.810Z,11.48
2022-08-16T00:43:40.790Z,11.98
2022-08-16T00:46:35.512Z,10.55
2022-08-16T00:49:17.618Z,11.10
2022-08-16T00:51:46.267Z,8.45
2022-08-16T00:54:13.333Z,10.52
2022-08-16T00:56:58.480Z,11.18
2022-08-16T00:59:29.001Z,10.25
2022-08-16T01:01:56.154Z,9.30
2022-08-16T01:04:30.056Z,9.77
2022-08-16T01:07:01.744Z,11.52
2022-08-16T01:09:33.831Z,9.95
2022-08-16T01:12:03.205Z,10.13
2022-08-16T01:19:34.894Z,10.95
2022-08-16T01:22:48.140Z,10.13
2022-08-16T01:25:06.759Z,11.93
2022-08-16T01:27:39.193Z,11.00
2022-08-16T01:30:20.084Z,10.00
2022-08-16T01:33:01.166Z,11.95
2022-08-16T01:35:35.365Z,12.80
2022-08-16T01:38:19.732Z,12.07
2022-08-16T01:40:47.812Z,11.43
2022-08-16T01:43:14.666Z,11.38
2022-08-16T01:45:43.339Z,10.38
2022-08-16T01:48:19.810Z,11.30
2022-08-16T01:51:09.680Z,9.50
2022-08-16T01:53:36.467Z,10.82
2022-08-16T01:56:07.483Z,11.35
2022-08-16T01:58:50.287Z,10.30
2022-08-16T02:01:18.149Z,12.20
2022-08-16T02:03:45.184Z,11.73
2022-08-16T02:06:33.783Z,11.82
2022-08-16T02:09:02.440Z,11.18
2022-08-16T02:11:48.871Z,10.82
2022-08-16T02:14:21.639Z,11.10
2022-08-16T02:19:17.534Z,10.38
2022-08-16T02:22:08.943Z,11.32
2022-08-16T02:24:41.997Z,10.38
2022-08-16T02:27:12.589Z,9.90
2022-08-16T02:29:41.254Z,9.40
2022-08-16T02:32:50.678Z,12.18
2022-08-16T02:34:57.231Z,11.20
2022-08-16T02:37:23.762Z,11.38
2022-08-16T02:40:12.058Z,10.77
2022-08-16T02:42:45.191Z,10.23
2022-08-16T02:45:12.611Z,11.50
2022-08-16T02:48:01.367Z,11.57
2022-08-16T02:50:54.376Z,10.00
2022-08-16T02:53:12.944Z,10.60
2022-08-16T02:55:41.332Z,11.52
2022-08-16T02:58:08.661Z,12.90
2022-08-16T03:00:36.160Z,12.63
2022-08-16T03:03:04.566Z,12.45
2022-08-16T03:05:37.163Z,12.20
2022-08-16T03:08:05.267Z,13.32
2022-08-16T03:10:52.773Z,13.05
2022-08-16T03:13:20.638Z,12.90
2022-08-16T03:15:49.569Z,13.57
2022-08-16T03:18:34.250Z,12.23
2022-08-16T03:21:04.338Z,10.48
2022-08-16T03:23:35.569Z,12.25
2022-08-16T03:26:02.731Z,12.45
2022-08-16T03:28:29.245Z,11.98
2022-08-16T03:30:56.924Z,11.88
2022-08-16T03:33:23.892Z,11.75
2022-08-16T03:35:57.175Z,11.63
2022-08-16T03:38:34.445Z,12.30
2022-08-16T03:41:03.350Z,13.23
2022-08-16T03:43:51.085Z,12.93
2022-08-16T03:46:44.383Z,13.65
2022-08-16T03:49:10.728Z,12.85
2022-08-16T03:51:40.303Z,13.82
2022-08-16T03:54:10.371Z,12.88
2022-08-16T03:56:39.489Z,12.73
2022-08-16T03:59:24.060Z,12.07
2022-08-16T04:01:53.612Z,13.45
2022-08-16T04:04:32.617Z,11.23
2022-08-16T04:07:03.366Z,11.60
2022-08-16T04:09:35.381Z,12.55
2022-08-16T04:12:11.246Z,12.65
2022-08-16T04:14:51.715Z,12.27
2022-08-16T04:17:18.441Z,11.55
2022-08-16T04:19:46.582Z,11.68
2022-08-16T04:22:13.781Z,11.45
2022-08-16T04:24:43.746Z,12.63
2022-08-16T04:27:21.107Z,12.43
2022-08-16T04:29:47.593Z,12.85
2022-08-16T04:32:19.633Z,12.57
2022-08-16T04:34:47.005Z,11.45
2022-08-16T04:37:14.545Z,13.27
2022-08-16T04:39:46.938Z,12.52
2022-08-16T04:42:25.808Z,12.82
2022-08-16T04:44:55.482Z,12.82
2022-08-16T04:50:14.438Z,14.02
2022-08-16T04:52:44.294Z,12.05
2022-08-16T04:55:15.763Z,11.45
2022-08-16T04:57:44.218Z,12.32
2022-08-16T05:00:31.041Z,13.85
2022-08-16T05:03:02.918Z,12.98
2022-08-16T05:05:55.560Z,14.13
2022-08-16T05:08:27.961Z,13.70
2022-08-16T05:11:05.209Z,13.13
2022-08-16T05:13:40.277Z,15.02
2022-08-16T05:16:12.036Z,14.50
2022-08-16T05:18:47.973Z,14.48
2022-08-16T05:21:14.831Z,13.93
2022-08-16T05:23:43.422Z,13.95
2022-08-16T05:26:19.882Z,13.23
2022-08-16T05:28:55.615Z,13.07
2022-08-16T05:31:23.967Z,12.23
2022-08-16T05:33:56.746Z,11.63
2022-08-16T05:36:23.282Z,11.98
2022-08-16T05:39:01.329Z,11.93
2022-08-16T05:41:29.186Z,13.02
2022-08-16T05:44:00.213Z,11.48
2022-08-16T05:46:32.061Z,11.63
2022-08-16T05:49:05.849Z,11.02
2022-08-16T05:51:38.456Z,10.10
2022-08-16T05:54:06.008Z,9.77
2022-08-16T05:56:32.530Z,9.35
2022-08-16T05:59:00.769Z,8.63
2022-08-16T06:01:28.079Z,9.05
2022-08-16T06:03:59.701Z,8.40
2022-08-16T06:06:28.954Z,8.43
2022-08-16T06:08:55.869Z,9.25
2022-08-16T06:11:22.389Z,8.75
2022-08-16T06:13:52.183Z,9.10
2022-08-16T06:16:22.207Z,9.73
2022-08-16T06:18:53.724Z,8.93
2022-08-16T06:21:22.733Z,8.45
2022-08-16T06:23:51.120Z,7.20
2022-08-16T06:26:21.552Z,8.07
2022-08-16T06:28:48.215Z,7.60
2022-08-16T06:31:16.755Z,7.65
2022-08-16T06:33:44.631Z,7.80
2022-08-16T06:36:14.195Z,7.45
2022-08-16T06:38:55.805Z,7.10
2022-08-16T06:41:24.305Z,7.72
2022-08-16T06:43:54.210Z,8.13
2022-08-16T06:46:31.753Z,7.57
2022-08-16T06:48:59.446Z,8.02
2022-08-16T06:51:26.012Z,7.22
2022-08-16T06:54:14.265Z,6.72
2022-08-16T06:56:42.415Z,7.35
2022-08-16T06:59:09.322Z,6.50
2022-08-16T07:01:46.239Z,7.30
2022-08-16T07:04:31.650Z,7.25
2022-08-16T07:06:59.674Z,7.13
2022-08-16T07:09:26.333Z,6.45
2022-08-16T07:11:56.407Z,6.82
2022-08-16T07:14:30.652Z,7.82
2022-08-16T07:16:59.201Z,7.95
2022-08-16T07:19:33.508Z,7.47
2022-08-16T07:22:38.139Z,7.45
2022-08-16T07:25:12.144Z,7.65
2022-08-16T07:27:39.408Z,7.35
2022-08-16T07:30:45.923Z,7.32
2022-08-16T07:32:57.609Z,8.38
2022-08-16T07:35:25.296Z,7.05
2022-08-16T07:37:52.444Z,7.40
2022-08-16T07:40:31.921Z,7.85
2022-08-16T07:43:06.139Z,7.00
2022-08-16T07:45:34.758Z,7.45
2022-08-16T07:48:11.479Z,6.55
2022-08-16T07:50:57.730Z,6.95
2022-08-16T07:53:28.802Z,6.32
2022-08-16T07:55:56.519Z,6.22
2022-08-16T07:58:33.913Z,5.95
2022-08-16T08:01:10.069Z,6.28
2022-08-16T08:03:39.317Z,5.93
2022-08-16T08:06:10.238Z,6.45
2022-08-16T08:08:50.777Z,5.60
2022-08-16T08:11:19.595Z,5.72
2022-08-16T08:13:47.951Z,6.35
2022-08-16T08:16:18.542Z,6.20
2022-08-16T08:18:50.322Z,6.32
2022-08-16T08:21:26.386Z,6.30
2022-08-16T08:23:56.491Z,7.38
2022-08-16T08:26:24.350Z,6.50
2022-08-16T08:28:51.491Z,6.93
2022-08-16T08:31:18.554Z,6.00
2022-08-16T08:33:51.301Z,6.82
2022-08-16T08:36:33.558Z,7.72
2022-08-16T08:39:00.727Z,6.72
2022-08-16T08:41:29.435Z,6.35
2022-08-16T08:43:57.937Z,6.50
2022-08-16T08:46:25.464Z,6.25
2022-08-16T08:48:59.886Z,6.35
2022-08-16T08:51:35.916Z,7.28
2022-08-16T08:54:09.509Z,7.25
2022-08-16T08:56:37.775Z,6.82
2022-08-16T08:59:20.176Z,6.38
2022-08-16T09:01:56.557Z,5.93
2022-08-16T09:04:26.989Z,5.57
2022-08-16T09:06:54.433Z,5.45
2022-08-16T09:09:22.130Z,4.90
2022-08-16T09:11:53.450Z,5.60
2022-08-16T09:14:49.686Z,5.60
2022-08-16T09:20:16.622Z,5.13
2022-08-16T09:22:44.064Z,5.57
2022-08-16T09:25:23.040Z,4.97
2022-08-16T09:27:58.081Z,4.78
2022-08-16T09:30:33.642Z,5.07
2022-08-16T09:33:06.754Z,5.03
2022-08-16T09:35:38.632Z,5.22
2022-08-16T09:38:08.362Z,4.50
2022-08-16T09:40:43.269Z,4.65
2022-08-16T09:43:46.323Z,4.47
2022-08-16T09:46:00.013Z,4.45
2022-08-16T09:48:36.955Z,4.03
2022-08-16T09:51:13.917Z,4.30
2022-08-16T09:53:41.101Z,4.95
2022-08-16T09:56:26.571Z,4.60
2022-08-16T09:59:03.935Z,4.47
2022-08-16T10:01:36.471Z,4.95
2022-08-16T10:04:29.981Z,4.80
2022-08-16T10:06:55.642Z,4.05
2022-08-16T10:09:25.226Z,4.63
2022-08-16T10:12:11.564Z,4.43
2022-08-16T10:14:46.220Z,4.05
2022-08-16T10:17:13.242Z,4.10
2022-08-16T10:19:39.787Z,4.93
2022-08-16T10:22:06.316Z,4.63
2022-08-16T10:24:33.705Z,3.72
2022-08-16T10:27:25.602Z,4.50
2022-08-16T10:30:00.556Z,4.28
2022-08-16T10:32:33.073Z,4.10
2022-08-16T10:35:00.349Z,4.43
2022-08-16T10:37:32.557Z,4.60
2022-08-16T10:40:04.700Z,4.03
2022-08-16T10:42:31.296Z,3.92
2022-08-16T10:44:57.829Z,3.97
2022-08-16T10:47:24.454Z,3.75
2022-08-16T10:49:51.615Z,3.60
2022-08-16T10:52:20.073Z,3.55
2022-08-16T10:57:34.984Z,4.15
2022-08-16T11:00:06.545Z,3.80
2022-08-16T11:02:58.007Z,3.90
2022-08-16T11:05:58.664Z,4.30
2022-08-16T11:08:16.384Z,4.07
2022-08-16T11:11:05.217Z,3.75
2022-08-16T11:17:00.741Z,4.43
2022-08-16T11:19:12.573Z,4.05
2022-08-16T11:24:42.019Z,3.83
2022-08-16T11:27:23.612Z,3.50
2022-08-16T11:29:55.091Z,3.83
2022-08-16T11:32:32.443Z,3.63
2022-08-16T11:35:13.824Z,3.50
2022-08-16T11:40:38.810Z,3.33
2022-08-16T11:43:10.098Z,3.20
2022-08-16T11:45:37.722Z,3.60
2022-08-16T11:48:05.082Z,3.42
2022-08-16T11:50:33.822Z,3.35
2022-08-16T11:53:06.106Z,3.60
2022-08-16T11:55:38.194Z,3.67
2022-08-16T11:58:07.135Z,3.70
2022-08-16T12:00:51.040Z,4.07
2022-08-16T12:03:24.966Z,3.42
2022-08-16T12:08:27.302Z,4.15
2022-08-16T12:10:54.230Z,3.30
2022-08-16T12:13:26.961Z,3.58
2022-08-16T12:15:53.721Z,3.90
2022-08-16T12:18:21.560Z,3.70
2022-08-16T12:20:48.219Z,3.50
2022-08-16T12:23:15.114Z,3.70
2022-08-16T12:25:44.793Z,3.80
2022-08-16T12:28:12.769Z,4.20
2022-08-16T12:30:44.882Z,3.75
2022-08-16T12:33:25.493Z,3.40
2022-08-16T12:35:53.131Z,3.30
2022-08-16T12:38:41.173Z,2.85
2022-08-16T12:41:06.747Z,3.40
2022-08-16T12:43:34.953Z,3.75
2022-08-16T12:46:02.597Z,3.60
2022-08-16T12:48:50.320Z,3.42
2022-08-16T12:51:24.179Z,3.17
2022-08-16T12:53:58.124Z,3.13
2022-08-16T12:56:28.411Z,3.55
2022-08-16T12:58:57.732Z,2.92
2022-08-16T13:01:28.997Z,3.00
2022-08-16T13:04:20.389Z,3.45
2022-08-16T13:06:45.199Z,3.10
2022-08-16T13:09:21.489Z,3.17
2022-08-16T13:12:01.687Z,3.17
2022-08-16T13:14:38.052Z,3.55
2022-08-16T13:17:09.487Z,2.90
2022-08-16T13:20:06.199Z,3.08
2022-08-16T13:22:25.341Z,3.47
2022-08-16T13:24:53.671Z,2.72
2022-08-16T13:28:01.978Z,3.35
2022-08-16T13:30:21.857Z,3.35
2022-08-16T13:32:55.859Z,3.40
2022-08-16T13:35:23.952Z,3.00
2022-08-16T13:37:52.217Z,2.90
2022-08-16T13:40:21.220Z,2.53
2022-08-16T13:42:49.618Z,3.03
2022-08-16T13:45:17.115Z,2.92
2022-08-16T13:47:46.105Z,3.28
2022-08-16T13:50:17.387Z,3.37
2022-08-16T13:52:58.726Z,3.60
2022-08-16T13:55:25.385Z,3.80
2022-08-16T13:58:37.757Z,3.20
2022-08-16T14:00:42.344Z,3.50
2022-08-16T14:03:09.322Z,3.75
2022-08-16T14:05:37.643Z,3.00
2022-08-16T14:08:04.205Z,3.33
2022-08-16T14:10:32.338Z,3.03
2022-08-16T14:13:00.950Z,2.92
2022-08-16T14:15:29.202Z,3.08
2022-08-16T14:18:23.345Z,3.13
2022-08-16T14:20:48.645Z,3.25
2022-08-16T14:23:23.663Z,3.10
2022-08-16T14:25:54.280Z,3.40
2022-08-16T14:28:21.928Z,3.28
2022-08-16T14:30:50.707Z,3.50
2022-08-16T14:33:18.710Z,3.50
2022-08-16T14:35:48.840Z,3.58
2022-08-16T14:38:24.038Z,3.42
2022-08-16T14:40:55.504Z,3.28
2022-08-16T14:43:24.860Z,3.80
2022-08-16T14:45:51.626Z,3.80
2022-08-16T14:48:25.902Z,3.45
2022-08-16T14:50:54.154Z,3.65
2022-08-16T14:55:49.535Z,3.60
2022-08-16T14:58:18.894Z,3.30
2022-08-16T15:00:47.778Z,3.35
2022-08-16T15:03:21.724Z,3.75
2022-08-16T15:05:49.790Z,3.50
2022-08-16T15:08:21.379Z,3.55
2022-08-16T15:11:03.637Z,3.17
2022-08-16T15:13:30.169Z,3.70
2022-08-16T15:16:02.275Z,3.10
2022-08-16T15:18:31.778Z,3.78
2022-08-16T15:20:59.946Z,3.70
2022-08-16T15:23:28.361Z,3.90
2022-08-16T15:26:02.998Z,4.07
2022-08-16T15:28:32.671Z,3.97
2022-08-16T15:33:43.594Z,3.85
2022-08-16T15:36:18.075Z,4.30
2022-08-16T15:39:02.360Z,4.03
2022-08-16T15:41:43.052Z,4.57
2022-08-16T15:44:21.142Z,4.18
2022-08-16T15:49:34.762Z,3.70
2022-08-16T15:52:12.097Z,3.88
2022-08-16T15:54:51.492Z,3.80
2022-08-16T15:57:19.760Z,3.97
2022-08-16T15:59:52.434Z,4.18
2022-08-16T16:02:29.348Z,4.40
2022-08-16T16:05:00.936Z,4.78
2022-08-16T16:07:30.307Z,4.28
2022-08-16T16:09:58.900Z,4.53
2022-08-16T16:12:51.019Z,4.55
2022-08-16T16:15:17.657Z,4.32
2022-08-16T16:17:44.193Z,4.50
2022-08-16T16:20:18.240Z,4.93
2022-08-16T16:22:46.628Z,4.35
2022-08-16T16:25:15.842Z,4.00
2022-08-16T16:27:44.185Z,3.83
2022-08-16T16:30:37.440Z,3.95
2022-08-16T16:33:01.729Z,3.75
2022-08-16T16:35:32.739Z,3.60
2022-08-16T16:37:59.978Z,4.00
2022-08-16T16:40:32.554Z,3.60
2022-08-16T16:43:00.063Z,3.85
2022-08-16T16:45:34.716Z,3.80
2022-08-16T16:48:12.275Z,3.90
2022-08-16T16:50:44.450Z,4.05
2022-08-16T16:53:16.778Z,3.90
2022-08-16T16:55:51.878Z,3.35
2022-08-16T16:58:43.383Z,4.30
2022-08-16T17:01:20.436Z,4.00
2022-08-16T17:03:53.671Z,4.07
2022-08-16T17:06:20.775Z,3.67
2022-08-16T17:08:47.649Z,3.83
2022-08-16T17:11:16.064Z,4.20
2022-08-16T17:13:44.661Z,3.53
2022-08-16T17:16:17.121Z,3.65
2022-08-16T17:19:16.626Z,4.07
2022-08-16T17:21:34.383Z,3.65
2022-08-16T17:24:18.322Z,4.22
2022-08-16T17:26:48.755Z,4.05
2022-08-16T17:29:15.851Z,4.13
2022-08-16T17:31:43.508Z,3.67
2022-08-16T17:34:29.224Z,3.80
2022-08-16T17:37:00.623Z,3.92
2022-08-16T17:39:32.863Z,3.83
2022-08-16T17:42:02.034Z,3.60
2022-08-16T17:46:55.236Z,3.83
2022-08-16T17:49:22.499Z,3.20
2022-08-16T17:51:49.065Z,3.80
2022-08-16T17:54:21.411Z,3.75
2022-08-16T17:57:00.490Z,3.45
2022-08-16T17:59:28.444Z,3.65
2022-08-16T18:01:56.239Z,3.10
2022-08-16T18:04:48.913Z,3.20
2022-08-16T18:07:10.742Z,3.22
2022-08-16T18:09:41.019Z,3.65
2022-08-16T18:12:45.055Z,3.58
2022-08-16T18:15:07.622Z,3.58
2022-08-16T18:17:34.427Z,3.63
2022-08-16T18:20:01.030Z,3.28
2022-08-16T18:22:30.959Z,3.80
2022-08-16T18:24:58.410Z,3.50
2022-08-16T18:27:27.247Z,3.80
2022-08-16T18:32:23.162Z,3.80
2022-08-16T18:34:52.775Z,3.65
2022-08-16T18:37:21.587Z,3.65
2022-08-16T18:39:48.177Z,4.00
2022-08-16T18:42:14.913Z,4.20
2022-08-16T18:44:44.123Z,3.85
2022-08-16T18:47:11.193Z,3.80
2022-08-16T18:49:37.799Z,3.58
2022-08-16T18:52:04.942Z,3.97
2022-08-16T18:54:33.654Z,4.38
2022-08-16T18:57:03.487Z,4.03
2022-08-16T18:59:33.214Z,3.65
2022-08-16T19:02:04.334Z,4.00
2022-08-16T19:04:56.838Z,3.83
2022-08-16T19:07:30.473Z,4.03
2022-08-16T19:09:58.207Z,4.03
2022-08-16T19:12:37.758Z,4.50
2022-08-16T19:15:14.417Z,4.28
2022-08-16T19:17:44.004Z,4.20
2022-08-16T19:20:11.760Z,5.00
2022-08-16T19:23:02.138Z,5.40
2022-08-16T19:25:46.770Z,5.57
2022-08-16T19:28:33.327Z,4.97
2022-08-16T19:31:05.722Z,5.53
2022-08-16T19:33:32.673Z,4.85
2022-08-16T19:35:59.696Z,5.53
2022-08-16T19:38:27.691Z,5.20
2022-08-16T19:40:54.298Z,5.60
2022-08-16T19:43:21.998Z,5.55
2022-08-16T19:45:49.193Z,5.60
2022-08-16T19:48:15.725Z,6.00
2022-08-16T19:50:42.279Z,5.40
2022-08-16T19:53:19.281Z,5.70
2022-08-16T19:55:47.330Z,5.60
2022-08-16T19:58:15.477Z,5.85
2022-08-16T20:00:43.514Z,5.50
2022-08-16T20:03:16.014Z,5.05
2022-08-16T20:05:43.825Z,4.72
2022-08-16T20:08:11.531Z,5.15
2022-08-16T20:10:40.861Z,5.32
2022-08-16T20:13:12.987Z,5.30
2022-08-16T20:15:40.958Z,5.60
2022-08-16T20:18:17.237Z,5.60
2022-08-16T20:20:51.617Z,6.18
2022-08-16T20:23:24.802Z,5.82
2022-08-16T20:25:55.856Z,5.78
2022-08-16T20:28:40.633Z,5.65
2022-08-16T20:31:11.466Z,5.97
2022-08-16T20:33:38.008Z,5.57
2022-08-16T20:36:04.559Z,5.70
2022-08-16T20:38:31.165Z,5.25
2022-08-16T20:40:57.828Z,5.78
2022-08-16T20:43:24.377Z,5.60
2022-08-16T20:45:50.852Z,5.90
2022-08-16T20:48:17.340Z,5.95
2022-08-16T20:50:45.032Z,5.40
2022-08-16T20:53:11.850Z,6.55
2022-08-16T20:55:40.066Z,5.53
2022-08-16T20:58:06.633Z,5.85
2022-08-16T21:00:33.626Z,5.65
2022-08-16T21:03:01.364Z,6.07
2022-08-16T21:05:31.761Z,6.10
2022-08-16T21:07:58.433Z,5.50
2022-08-16T21:10:24.989Z,6.50
2022-08-16T21:13:02.855Z,6.05
2022-08-16T21:15:32.758Z,6.20
2022-08-16T21:17:59.945Z,5.57
2022-08-16T21:20:28.010Z,6.47
2022-08-16T21:23:03.504Z,5.85
2022-08-16T21:25:34.858Z,6.47
2022-08-16T21:28:38.990Z,6.57
2022-08-16T21:30:50.101Z,6.38
2022-08-16T21:33:18.553Z,6.50
2022-08-16T21:35:47.037Z,6.53
2022-08-16T21:38:28.696Z,6.57
2022-08-16T21:40:57.186Z,6.30
2022-08-16T21:43:25.349Z,6.10
2022-08-16T21:45:56.014Z,6.50
2022-08-16T21:48:34.683Z,6.50
2022-08-16T21:51:08.320Z,6.00
2022-08-16T21:53:35.365Z,6.60
2022-08-16T21:56:02.792Z,6.80
2022-08-16T21:58:30.756Z,6.65
2022-08-16T22:00:57.547Z,6.78
2022-08-16T22:03:24.359Z,6.43
2022-08-16T22:05:59.931Z,6.38
2022-08-16T22:08:46.733Z,7.40
2022-08-16T22:11:18.362Z,6.47
2022-08-16T22:13:56.457Z,7.07
2022-08-16T22:16:27.046Z,6.50
2022-08-16T22:18:53.697Z,7.15
2022-08-16T22:21:20.438Z,6.70
2022-08-16T22:23:57.735Z,6.93
2022-08-16T22:26:32.080Z,7.40
2022-08-16T22:29:04.522Z,7.55
2022-08-16T22:31:31.365Z,6.78
2022-08-16T22:33:58.570Z,7.07
2022-08-16T22:36:28.438Z,6.85
2022-08-16T22:39:01.324Z,7.05
2022-08-16T22:41:31.740Z,7.47
2022-08-16T22:43:59.478Z,8.38
2022-08-16T22:46:26.069Z,7.55
2022-08-16T22:48:52.907Z,7.70
2022-08-16T22:51:22.159Z,8.77
2022-08-16T22:53:48.770Z,8.27
2022-08-16T22:56:18.223Z,8.07
2022-08-16T22:58:46.241Z,7.88
2022-08-16T23:01:13.745Z,8.63
2022-08-16T23:03:40.948Z,7.88
2022-08-16T23:06:08.693Z,8.25
2022-08-16T23:08:39.205Z,8.13
2022-08-16T23:11:10.407Z,7.70
2022-08-16T23:13:38.044Z,8.05
2022-08-16T23:16:21.415Z,8.63
2022-08-16T23:18:49.552Z,9.00
2022-08-16T23:21:17.586Z,7.90
2022-08-16T23:23:47.224Z,8.25
2022-08-16T23:26:46.369Z,8.15
2022-08-16T23:29:04.309Z,8.98
2022-08-16T23:31:32.471Z,8.27
2022-08-16T23:33:59.878Z,8.98
2022-08-16T23:36:26.423Z,8.15
2022-08-16T23:38:53.013Z,8.27
2022-08-16T23:41:20.034Z,8.60
2022-08-16T23:43:46.533Z,9.10
2022-08-16T23:46:19.413Z,8.35
2022-08-16T23:49:59.451Z,8.50
2022-08-16T23:51:33.203Z,9.07
2022-08-16T23:54:00.609Z,9.18
2022-08-16T23:56:27.115Z,8.40
2022-08-16T23:59:02.281Z,8.55
